Portada
METAR-TAF:

METAR-TAF

Aeroports :

Culiacán, Mèxic

latitud: 24-49N, longitud: 107-24W, altitud: 39 m

Observació

L'informe es va fer fa 1 hora i 20 minuts, a les 00:43 UTC
Vent 6 kt del Oest
Temperatura 26°C
Humitat 51%
Pressió 1012 hPa
Visibilitat: 16.1 km
Cel clar

METAR: MMCL 270043Z 28006KT 10SM SKC 26/15 A2988

Hora: 19:03 (02:03 UTC)

Pronòstic

L'informe es va fer fa 9 hores i 22 minuts, a les 16:41 UTC
Pronòstic vàlid del 26 a les 18 UTC al 27 a les 18 UTC
Vent 12 kt del Nord-Oest
Visibilitat: 10 km
Cel clar
A partir de les 27 a les 0300 UTC
Vent 10 kt del Nord-Est
Visibilitat: 10 km
Cel clar

TAF: MMCL 261641Z 2618/2718 32012KT P6SM SKC FM270300 05010KT P6SM SKC

Observacions i pronòstics meteorològics de més de 4000 aeroports (METAR i TAF).

Les estacions disponibles són els punts grocs i vermells al mapa.

Posi el ratolí al punt desitjat per veure el nom de l'estació.

Feu clic per veure les observacions i els pronòstics meteorològics.

Per canviar el mapa: feu clic els botons verds amb una creu de color negre per apropar; al botó verd amb un guió per allunyar la imatge; o en les fletxes verdes per a mapes adjacents.


METAR-TAF: